sensor_id;sensor_type;location;lat;lon;timestamp;temperature;humidity
16838;DHT22;19510;54.486;9.046;2022-07-19T05:21:31;17.80;99.90
16838;DHT22;19510;54.486;9.046;2022-07-19T05:24:01;17.90;99.90
16838;DHT22;19510;54.486;9.046;2022-07-19T05:26:30;17.90;99.90
16838;DHT22;19510;54.486;9.046;2022-07-19T05:28:57;18.00;99.90
16838;DHT22;19510;54.486;9.046;2022-07-19T05:31:22;18.10;99.90
16838;DHT22;19510;54.486;9.046;2022-07-19T05:33:48;18.10;99.90
16838;DHT22;19510;54.486;9.046;2022-07-19T05:36:17;18.20;99.90
16838;DHT22;19510;54.486;9.046;2022-07-19T05:38:53;18.30;99.90
16838;DHT22;19510;54.486;9.046;2022-07-19T05:41:42;18.40;99.90
16838;DHT22;19510;54.486;9.046;2022-07-19T05:44:20;18.50;99.90
16838;DHT22;19510;54.486;9.046;2022-07-19T05:46:49;18.50;99.90
16838;DHT22;19510;54.486;9.046;2022-07-19T05:49:18;18.60;99.90
16838;DHT22;19510;54.486;9.046;2022-07-19T05:51:44;18.70;99.90
16838;DHT22;19510;54.486;9.046;2022-07-19T05:54:24;18.80;99.90
16838;DHT22;19510;54.486;9.046;2022-07-19T06:06:45;19.10;99.90
16838;DHT22;19510;54.486;9.046;2022-07-19T06:09:34;19.30;99.90
16838;DHT22;19510;54.486;9.046;2022-07-19T06:12:07;19.30;99.90
16838;DHT22;19510;54.486;9.046;2022-07-19T06:14:39;19.40;99.90
16838;DHT22;19510;54.486;9.046;2022-07-19T06:17:14;19.50;99.90
16838;DHT22;19510;54.486;9.046;2022-07-19T06:22:46;19.60;99.90
16838;DHT22;19510;54.486;9.046;2022-07-19T06:28:34;19.70;99.90
16838;DHT22;19510;54.486;9.046;2022-07-19T06:31:13;19.90;99.90
16838;DHT22;19510;54.486;9.046;2022-07-19T06:33:43;20.00;99.90
16838;DHT22;19510;54.486;9.046;2022-07-19T06:36:10;20.10;99.90
16838;DHT22;19510;54.486;9.046;2022-07-19T06:38:36;20.20;99.90
16838;DHT22;19510;54.486;9.046;2022-07-19T06:41:02;20.30;99.90
16838;DHT22;19510;54.486;9.046;2022-07-19T06:43:33;20.40;99.90
16838;DHT22;19510;54.486;9.046;2022-07-19T06:46:16;20.50;99.90
16838;DHT22;19510;54.486;9.046;2022-07-19T06:48:49;20.50;99.90
16838;DHT22;19510;54.486;9.046;2022-07-19T06:51:21;20.60;99.90
16838;DHT22;19510;54.486;9.046;2022-07-19T06:57:09;20.70;99.90
16838;DHT22;19510;54.486;9.046;2022-07-19T06:59:48;20.80;99.90
16838;DHT22;19510;54.486;9.046;2022-07-19T07:02:14;21.00;99.90
16838;DHT22;19510;54.486;9.046;2022-07-19T07:05:16;21.00;99.90
16838;DHT22;19510;54.486;9.046;2022-07-19T07:07:57;21.20;99.90
16838;DHT22;19510;54.486;9.046;2022-07-19T07:10:31;21.20;99.90
16838;DHT22;19510;54.486;9.046;2022-07-19T07:13:20;21.30;99.90
16838;DHT22;19510;54.486;9.046;2022-07-19T07:15:46;21.50;99.90
16838;DHT22;19510;54.486;9.046;2022-07-19T07:21:34;21.60;99.90
16838;DHT22;19510;54.486;9.046;2022-07-19T07:24:05;21.70;99.90
16838;DHT22;19510;54.486;9.046;2022-07-19T07:26:31;21.80;99.90
16838;DHT22;19510;54.486;9.046;2022-07-19T07:28:57;21.90;99.90
16838;DHT22;19510;54.486;9.046;2022-07-19T07:31:23;22.00;99.90
16838;DHT22;19510;54.486;9.046;2022-07-19T07:33:49;22.10;99.90
16838;DHT22;19510;54.486;9.046;2022-07-19T07:36:15;22.20;99.90
16838;DHT22;19510;54.486;9.046;2022-07-19T07:38:41;22.20;99.90
16838;DHT22;19510;54.486;9.046;2022-07-19T07:41:07;22.30;99.90
16838;DHT22;19510;54.486;9.046;2022-07-19T07:43:33;22.30;99.90
16838;DHT22;19510;54.486;9.046;2022-07-19T07:46:15;22.50;99.90
16838;DHT22;19510;54.486;9.046;2022-07-19T07:48:41;22.50;99.90
16838;DHT22;19510;54.486;9.046;2022-07-19T07:51:24;22.60;99.90
16838;DHT22;19510;54.486;9.046;2022-07-19T07:53:50;22.60;99.90
16838;DHT22;19510;54.486;9.046;2022-07-19T07:56:16;22.70;99.90
16838;DHT22;19510;54.486;9.046;2022-07-19T07:58:42;22.80;99.90
16838;DHT22;19510;54.486;9.046;2022-07-19T08:01:07;22.90;99.90
16838;DHT22;19510;54.486;9.046;2022-07-19T08:03:33;23.00;99.90
16838;DHT22;19510;54.486;9.046;2022-07-19T08:05:59;23.00;99.90
16838;DHT22;19510;54.486;9.046;2022-07-19T08:08:25;23.10;99.90
16838;DHT22;19510;54.486;9.046;2022-07-19T08:10:56;23.20;99.90
16838;DHT22;19510;54.486;9.046;2022-07-19T08:13:22;23.30;99.90
16838;DHT22;19510;54.486;9.046;2022-07-19T08:15:48;23.30;99.90
16838;DHT22;19510;54.486;9.046;2022-07-19T08:18:14;23.40;99.90
16838;DHT22;19510;54.486;9.046;2022-07-19T08:20:43;23.40;99.90
16838;DHT22;19510;54.486;9.046;2022-07-19T08:23:11;23.50;99.90
16838;DHT22;19510;54.486;9.046;2022-07-19T08:25:37;23.60;99.90
16838;DHT22;19510;54.486;9.046;2022-07-19T08:28:03;23.70;99.90
16838;DHT22;19510;54.486;9.046;2022-07-19T08:30:29;23.80;99.90
16838;DHT22;19510;54.486;9.046;2022-07-19T08:32:55;23.80;99.90
16838;DHT22;19510;54.486;9.046;2022-07-19T08:35:21;23.90;99.90
16838;DHT22;19510;54.486;9.046;2022-07-19T08:37:46;24.00;99.90
16838;DHT22;19510;54.486;9.046;2022-07-19T08:40:12;24.00;99.90
16838;DHT22;19510;54.486;9.046;2022-07-19T08:42:38;24.10;99.90
16838;DHT22;19510;54.486;9.046;2022-07-19T08:45:07;24.10;99.90
16838;DHT22;19510;54.486;9.046;2022-07-19T08:47:34;24.20;99.90
16838;DHT22;19510;54.486;9.046;2022-07-19T08:50:01;24.30;99.90
16838;DHT22;19510;54.486;9.046;2022-07-19T08:52:27;24.30;99.90
16838;DHT22;19510;54.486;9.046;2022-07-19T08:54:54;24.40;99.90
16838;DHT22;19510;54.486;9.046;2022-07-19T08:57:20;24.50;99.90
16838;DHT22;19510;54.486;9.046;2022-07-19T09:00:05;24.60;99.90
16838;DHT22;19510;54.486;9.046;2022-07-19T09:02:33;24.60;99.90
16838;DHT22;19510;54.486;9.046;2022-07-19T09:05:10;24.70;99.90
16838;DHT22;19510;54.486;9.046;2022-07-19T09:07:39;24.80;99.90
16838;DHT22;19510;54.486;9.046;2022-07-19T09:10:19;24.90;99.90
16838;DHT22;19510;54.486;9.046;2022-07-19T09:18:30;25.10;99.90
16838;DHT22;19510;54.486;9.046;2022-07-19T09:20:57;25.10;99.90
16838;DHT22;19510;54.486;9.046;2022-07-19T09:23:26;25.20;99.90
16838;DHT22;19510;54.486;9.046;2022-07-19T09:25:54;25.30;99.90
16838;DHT22;19510;54.486;9.046;2022-07-19T09:28:21;25.30;99.90
16838;DHT22;19510;54.486;9.046;2022-07-19T09:30:49;25.40;99.90
16838;DHT22;19510;54.486;9.046;2022-07-19T09:33:20;25.50;99.90
16838;DHT22;19510;54.486;9.046;2022-07-19T09:35:48;25.50;99.90
16838;DHT22;19510;54.486;9.046;2022-07-19T09:38:25;25.60;99.90
16838;DHT22;19510;54.486;9.046;2022-07-19T09:41:07;25.70;99.90
16838;DHT22;19510;54.486;9.046;2022-07-19T09:43:50;25.70;99.90
16838;DHT22;19510;54.486;9.046;2022-07-19T09:46:40;25.80;99.90
16838;DHT22;19510;54.486;9.046;2022-07-19T09:49:17;25.90;99.90
16838;DHT22;19510;54.486;9.046;2022-07-19T09:51:48;25.90;99.90
16838;DHT22;19510;54.486;9.046;2022-07-19T09:54:21;26.10;99.90
16838;DHT22;19510;54.486;9.046;2022-07-19T09:56:48;26.20;99.90
16838;DHT22;19510;54.486;9.046;2022-07-19T09:59:44;26.20;99.90
16838;DHT22;19510;54.486;9.046;2022-07-19T10:02:25;26.40;99.90
16838;DHT22;19510;54.486;9.046;2022-07-19T10:04:52;26.50;99.90
16838;DHT22;19510;54.486;9.046;2022-07-19T10:07:18;26.60;99.90
16838;DHT22;19510;54.486;9.046;2022-07-19T10:09:44;26.70;99.90
16838;DHT22;19510;54.486;9.046;2022-07-19T10:12:11;26.90;99.90
16838;DHT22;19510;54.486;9.046;2022-07-19T10:14:37;27.00;99.90
16838;DHT22;19510;54.486;9.046;2022-07-19T10:17:34;27.00;99.90
16838;DHT22;19510;54.486;9.046;2022-07-19T10:20:01;27.10;99.90
16838;DHT22;19510;54.486;9.046;2022-07-19T10:22:28;27.10;99.90
16838;DHT22;19510;54.486;9.046;2022-07-19T10:30:20;27.60;99.90
16838;DHT22;19510;54.486;9.046;2022-07-19T10:32:51;27.70;99.90
16838;DHT22;19510;54.486;9.046;2022-07-19T10:38:09;28.00;99.90
16838;DHT22;19510;54.486;9.046;2022-07-19T10:40:42;28.10;99.90
16838;DHT22;19510;54.486;9.046;2022-07-19T10:43:17;28.20;99.90
16838;DHT22;19510;54.486;9.046;2022-07-19T10:48:54;28.40;99.90
16838;DHT22;19510;54.486;9.046;2022-07-19T10:51:28;28.50;99.90
16838;DHT22;19510;54.486;9.046;2022-07-19T10:53:56;28.70;99.90
16838;DHT22;19510;54.486;9.046;2022-07-19T11:01:20;28.90;99.90
16838;DHT22;19510;54.486;9.046;2022-07-19T11:03:50;29.10;99.90
16838;DHT22;19510;54.486;9.046;2022-07-19T11:06:27;29.20;99.90
16838;DHT22;19510;54.486;9.046;2022-07-19T11:08:58;29.30;99.90
16838;DHT22;19510;54.486;9.046;2022-07-19T11:11:25;29.50;99.90
16838;DHT22;19510;54.486;9.046;2022-07-19T11:13:57;29.50;99.90
16838;DHT22;19510;54.486;9.046;2022-07-19T11:16:28;29.60;99.90
16838;DHT22;19510;54.486;9.046;2022-07-19T11:21:31;29.70;99.90
16838;DHT22;19510;54.486;9.046;2022-07-19T11:23:58;29.80;99.90
16838;DHT22;19510;54.486;9.046;2022-07-19T11:26:34;30.00;99.90
16838;DHT22;19510;54.486;9.046;2022-07-19T11:29:02;30.10;99.90
16838;DHT22;19510;54.486;9.046;2022-07-19T11:31:28;30.30;99.90
16838;DHT22;19510;54.486;9.046;2022-07-19T11:33:55;30.40;99.90
16838;DHT22;19510;54.486;9.046;2022-07-19T11:36:24;30.50;99.90
16838;DHT22;19510;54.486;9.046;2022-07-19T11:38:58;30.60;99.90
16838;DHT22;19510;54.486;9.046;2022-07-19T11:41:30;30.60;99.90
16838;DHT22;19510;54.486;9.046;2022-07-19T11:44:01;30.80;99.90
16838;DHT22;19510;54.486;9.046;2022-07-19T11:46:32;30.90;99.90
16838;DHT22;19510;54.486;9.046;2022-07-19T11:49:05;30.90;99.90
16838;DHT22;19510;54.486;9.046;2022-07-19T11:51:32;31.00;99.90
16838;DHT22;19510;54.486;9.046;2022-07-19T11:53:59;31.10;99.90
16838;DHT22;19510;54.486;9.046;2022-07-19T11:56:31;31.30;99.90
16838;DHT22;19510;54.486;9.046;2022-07-19T11:58:59;31.50;99.90
16838;DHT22;19510;54.486;9.046;2022-07-19T12:04:10;31.70;99.90
16838;DHT22;19510;54.486;9.046;2022-07-19T12:06:49;31.80;99.90
16838;DHT22;19510;54.486;9.046;2022-07-19T12:09:37;32.00;99.90
16838;DHT22;19510;54.486;9.046;2022-07-19T12:12:14;32.10;99.90
16838;DHT22;19510;54.486;9.046;2022-07-19T12:26:38;32.60;99.90
16838;DHT22;19510;54.486;9.046;2022-07-19T12:29:25;32.80;99.90
16838;DHT22;19510;54.486;9.046;2022-07-19T12:31:54;32.70;99.90
16838;DHT22;19510;54.486;9.046;2022-07-19T12:34:20;32.80;99.90
16838;DHT22;19510;54.486;9.046;2022-07-19T12:36:46;32.90;99.90
16838;DHT22;19510;54.486;9.046;2022-07-19T12:39:23;33.10;99.90
16838;DHT22;19510;54.486;9.046;2022-07-19T12:44:19;33.40;99.90
16838;DHT22;19510;54.486;9.046;2022-07-19T12:46:45;33.30;99.90
16838;DHT22;19510;54.486;9.046;2022-07-19T12:49:41;33.40;99.90
16838;DHT22;19510;54.486;9.046;2022-07-19T12:52:28;33.60;99.90
16838;DHT22;19510;54.486;9.046;2022-07-19T12:54:54;33.80;99.90
16838;DHT22;19510;54.486;9.046;2022-07-19T12:57:20;33.70;99.90
16838;DHT22;19510;54.486;9.046;2022-07-19T12:59:46;33.70;99.90
16838;DHT22;19510;54.486;9.046;2022-07-19T13:02:14;33.80;99.90
16838;DHT22;19510;54.486;9.046;2022-07-19T13:04:46;33.90;99.90
16838;DHT22;19510;54.486;9.046;2022-07-19T13:07:18;34.10;99.90
16838;DHT22;19510;54.486;9.046;2022-07-19T13:09:44;34.10;99.90
16838;DHT22;19510;54.486;9.046;2022-07-19T13:12:12;34.30;99.90
16838;DHT22;19510;54.486;9.046;2022-07-19T13:14:56;34.40;99.90
16838;DHT22;19510;54.486;9.046;2022-07-19T13:18:06;34.40;99.90
16838;DHT22;19510;54.486;9.046;2022-07-19T13:20:55;34.50;99.90
16838;DHT22;19510;54.486;9.046;2022-07-19T13:23:50;34.60;99.90
16838;DHT22;19510;54.486;9.046;2022-07-19T13:26:15;34.50;99.90
16838;DHT22;19510;54.486;9.046;2022-07-19T13:28:41;34.60;99.90
16838;DHT22;19510;54.486;9.046;2022-07-19T13:31:07;34.60;99.90
16838;DHT22;19510;54.486;9.046;2022-07-19T13:36:56;34.50;99.90
16838;DHT22;19510;54.486;9.046;2022-07-19T13:39:22;34.50;99.90
16838;DHT22;19510;54.486;9.046;2022-07-19T13:41:48;34.60;99.90
16838;DHT22;19510;54.486;9.046;2022-07-19T13:44:16;34.60;99.90
16838;DHT22;19510;54.486;9.046;2022-07-19T13:46:58;34.60;99.90
16838;DHT22;19510;54.486;9.046;2022-07-19T13:49:27;34.60;99.90
16838;DHT22;19510;54.486;9.046;2022-07-19T13:51:53;34.20;99.90
16838;DHT22;19510;54.486;9.046;2022-07-19T13:54:19;34.20;99.90
16838;DHT22;19510;54.486;9.046;2022-07-19T13:56:44;34.30;99.90
16838;DHT22;19510;54.486;9.046;2022-07-19T13:59:49;34.40;99.90
16838;DHT22;19510;54.486;9.046;2022-07-19T14:02:15;34.60;99.90
16838;DHT22;19510;54.486;9.046;2022-07-19T14:04:41;34.60;99.90
16838;DHT22;19510;54.486;9.046;2022-07-19T14:07:06;34.60;99.90
16838;DHT22;19510;54.486;9.046;2022-07-19T14:09:32;34.50;99.90
16838;DHT22;19510;54.486;9.046;2022-07-19T14:12:02;34.60;99.90
16838;DHT22;19510;54.486;9.046;2022-07-19T14:14:28;34.60;99.90
16838;DHT22;19510;54.486;9.046;2022-07-19T14:16:54;34.70;99.30
16838;DHT22;19510;54.486;9.046;2022-07-19T14:19:20;34.80;98.60
16838;DHT22;19510;54.486;9.046;2022-07-19T14:21:46;34.80;98.10
16838;DHT22;19510;54.486;9.046;2022-07-19T14:24:18;34.80;97.90
16838;DHT22;19510;54.486;9.046;2022-07-19T14:26:47;34.70;98.00
16838;DHT22;19510;54.486;9.046;2022-07-19T14:29:19;34.80;97.40
16838;DHT22;19510;54.486;9.046;2022-07-19T14:31:44;34.80;98.30
16838;DHT22;19510;54.486;9.046;2022-07-19T14:34:10;34.80;97.60
16838;DHT22;19510;54.486;9.046;2022-07-19T14:36:36;35.00;97.80
16838;DHT22;19510;54.486;9.046;2022-07-19T14:39:02;34.90;96.10
16838;DHT22;19510;54.486;9.046;2022-07-19T14:41:27;34.90;97.30
16838;DHT22;19510;54.486;9.046;2022-07-19T14:43:53;34.90;98.00
16838;DHT22;19510;54.486;9.046;2022-07-19T14:46:19;35.00;99.30
16838;DHT22;19510;54.486;9.046;2022-07-19T14:48:54;35.20;99.20
16838;DHT22;19510;54.486;9.046;2022-07-19T14:51:20;35.30;98.80
16838;DHT22;19510;54.486;9.046;2022-07-19T14:53:45;35.40;98.90
16838;DHT22;19510;54.486;9.046;2022-07-19T14:56:20;35.10;99.10
16838;DHT22;19510;54.486;9.046;2022-07-19T14:58:46;35.00;98.90
16838;DHT22;19510;54.486;9.046;2022-07-19T15:01:12;35.10;99.90
16838;DHT22;19510;54.486;9.046;2022-07-19T15:03:49;35.10;98.60
16838;DHT22;19510;54.486;9.046;2022-07-19T15:06:15;35.10;97.80
16838;DHT22;19510;54.486;9.046;2022-07-19T15:08:41;35.10;98.40
16838;DHT22;19510;54.486;9.046;2022-07-19T15:11:10;35.30;99.30
16838;DHT22;19510;54.486;9.046;2022-07-19T15:13:35;35.10;97.70
16838;DHT22;19510;54.486;9.046;2022-07-19T15:16:01;34.90;98.70
16838;DHT22;19510;54.486;9.046;2022-07-19T15:18:27;35.00;98.20
16838;DHT22;19510;54.486;9.046;2022-07-19T15:20:55;35.10;97.70
16838;DHT22;19510;54.486;9.046;2022-07-19T15:23:21;35.20;97.00
16838;DHT22;19510;54.486;9.046;2022-07-19T15:25:47;35.20;97.10
16838;DHT22;19510;54.486;9.046;2022-07-19T15:28:13;35.30;97.90
16838;DHT22;19510;54.486;9.046;2022-07-19T15:30:41;35.40;96.60
16838;DHT22;19510;54.486;9.046;2022-07-19T15:33:06;35.30;97.20
16838;DHT22;19510;54.486;9.046;2022-07-19T15:35:32;35.10;96.90
16838;DHT22;19510;54.486;9.046;2022-07-19T15:37:58;35.00;96.50
16838;DHT22;19510;54.486;9.046;2022-07-19T15:40:24;34.80;97.50
16838;DHT22;19510;54.486;9.046;2022-07-19T15:43:03;34.80;96.70
16838;DHT22;19510;54.486;9.046;2022-07-19T15:45:29;34.90;96.90
16838;DHT22;19510;54.486;9.046;2022-07-19T15:47:55;34.90;96.80
16838;DHT22;19510;54.486;9.046;2022-07-19T15:50:20;35.00;97.20
16838;DHT22;19510;54.486;9.046;2022-07-19T15:52:46;35.00;98.20
16838;DHT22;19510;54.486;9.046;2022-07-19T15:55:15;35.00;96.70
16838;DHT22;19510;54.486;9.046;2022-07-19T15:57:44;34.90;96.80
16838;DHT22;19510;54.486;9.046;2022-07-19T16:00:13;34.80;96.30
16838;DHT22;19510;54.486;9.046;2022-07-19T16:02:39;34.70;97.10
16838;DHT22;19510;54.486;9.046;2022-07-19T16:05:06;34.60;97.50
16838;DHT22;19510;54.486;9.046;2022-07-19T16:07:32;34.40;97.60
16838;DHT22;19510;54.486;9.046;2022-07-19T16:10:03;34.20;98.30
16838;DHT22;19510;54.486;9.046;2022-07-19T16:12:49;34.00;98.10
16838;DHT22;19510;54.486;9.046;2022-07-19T16:15:17;33.60;98.30
16838;DHT22;19510;54.486;9.046;2022-07-19T16:17:43;33.50;99.20
16838;DHT22;19510;54.486;9.046;2022-07-19T16:20:21;33.30;99.70
16838;DHT22;19510;54.486;9.046;2022-07-19T16:22:54;33.20;99.90
16838;DHT22;19510;54.486;9.046;2022-07-19T16:25:21;33.10;99.70
16838;DHT22;19510;54.486;9.046;2022-07-19T16:27:47;33.00;99.90
16838;DHT22;19510;54.486;9.046;2022-07-19T16:30:14;32.90;99.80
16838;DHT22;19510;54.486;9.046;2022-07-19T16:32:40;32.80;98.70
16838;DHT22;19510;54.486;9.046;2022-07-19T16:35:09;32.70;98.70
16838;DHT22;19510;54.486;9.046;2022-07-19T16:37:35;32.50;99.10
16838;DHT22;19510;54.486;9.046;2022-07-19T16:40:08;32.50;99.10
16838;DHT22;19510;54.486;9.046;2022-07-19T16:42:37;32.30;99.30
16838;DHT22;19510;54.486;9.046;2022-07-19T16:45:04;32.20;99.60
16838;DHT22;19510;54.486;9.046;2022-07-19T16:47:30;32.10;99.60
16838;DHT22;19510;54.486;9.046;2022-07-19T16:50:07;32.10;99.90
16838;DHT22;19510;54.486;9.046;2022-07-19T16:52:33;32.00;99.90
16838;DHT22;19510;54.486;9.046;2022-07-19T16:54:59;32.00;99.70
16838;DHT22;19510;54.486;9.046;2022-07-19T16:57:25;31.90;99.90
16838;DHT22;19510;54.486;9.046;2022-07-19T16:59:50;31.80;99.90
16838;DHT22;19510;54.486;9.046;2022-07-19T17:02:16;31.70;99.90
16838;DHT22;19510;54.486;9.046;2022-07-19T17:04:42;31.60;99.90
16838;DHT22;19510;54.486;9.046;2022-07-19T17:07:11;31.50;99.90
16838;DHT22;19510;54.486;9.046;2022-07-19T17:09:38;31.40;99.90
16838;DHT22;19510;54.486;9.046;2022-07-19T17:12:04;31.30;99.90
16838;DHT22;19510;54.486;9.046;2022-07-19T17:14:31;31.30;99.90
16838;DHT22;19510;54.486;9.046;2022-07-19T17:16:57;31.20;99.90
16838;DHT22;19510;54.486;9.046;2022-07-19T17:19:25;31.30;99.90
16838;DHT22;19510;54.486;9.046;2022-07-19T17:21:54;31.20;99.90
16838;DHT22;19510;54.486;9.046;2022-07-19T17:24:19;31.10;99.90
16838;DHT22;19510;54.486;9.046;2022-07-19T17:26:45;31.00;99.90
16838;DHT22;19510;54.486;9.046;2022-07-19T17:29:11;31.00;99.90
16838;DHT22;19510;54.486;9.046;2022-07-19T17:31:39;31.00;99.90
16838;DHT22;19510;54.486;9.046;2022-07-19T17:34:07;30.90;99.90
16838;DHT22;19510;54.486;9.046;2022-07-19T17:36:33;30.90;99.90
16838;DHT22;19510;54.486;9.046;2022-07-19T17:38:59;30.80;99.90
16838;DHT22;19510;54.486;9.046;2022-07-19T17:41:24;30.80;99.90
16838;DHT22;19510;54.486;9.046;2022-07-19T17:43:50;30.80;99.90
16838;DHT22;19510;54.486;9.046;2022-07-19T17:46:16;30.70;99.90
16838;DHT22;19510;54.486;9.046;2022-07-19T17:48:44;30.70;99.90
16838;DHT22;19510;54.486;9.046;2022-07-19T17:51:09;30.70;99.90
16838;DHT22;19510;54.486;9.046;2022-07-19T17:53:35;30.60;99.90
16838;DHT22;19510;54.486;9.046;2022-07-19T17:56:01;30.50;99.90
16838;DHT22;19510;54.486;9.046;2022-07-19T17:58:27;30.40;99.90
16838;DHT22;19510;54.486;9.046;2022-07-19T18:00:58;30.30;99.90
16838;DHT22;19510;54.486;9.046;2022-07-19T18:03:24;30.30;99.90
16838;DHT22;19510;54.486;9.046;2022-07-19T18:05:52;30.20;99.90
16838;DHT22;19510;54.486;9.046;2022-07-19T18:08:20;30.10;99.90
16838;DHT22;19510;54.486;9.046;2022-07-19T18:10:48;30.00;99.90
16838;DHT22;19510;54.486;9.046;2022-07-19T18:13:20;29.90;99.90
16838;DHT22;19510;54.486;9.046;2022-07-19T18:15:51;29.90;99.90
16838;DHT22;19510;54.486;9.046;2022-07-19T18:18:17;29.70;99.90
16838;DHT22;19510;54.486;9.046;2022-07-19T18:20:50;29.60;99.90
16838;DHT22;19510;54.486;9.046;2022-07-19T18:23:15;29.50;99.90
16838;DHT22;19510;54.486;9.046;2022-07-19T18:25:41;29.40;99.90
16838;DHT22;19510;54.486;9.046;2022-07-19T18:28:07;29.30;99.90
16838;DHT22;19510;54.486;9.046;2022-07-19T18:30:34;29.10;99.90
16838;DHT22;19510;54.486;9.046;2022-07-19T18:32:59;29.00;99.90
16838;DHT22;19510;54.486;9.046;2022-07-19T18:35:33;28.90;99.90
16838;DHT22;19510;54.486;9.046;2022-07-19T18:37:58;28.70;99.90
16838;DHT22;19510;54.486;9.046;2022-07-19T18:40:42;28.60;99.90
16838;DHT22;19510;54.486;9.046;2022-07-19T18:43:16;28.50;99.90
16838;DHT22;19510;54.486;9.046;2022-07-19T18:45:43;28.40;99.90
16838;DHT22;19510;54.486;9.046;2022-07-19T18:48:19;28.30;99.90
16838;DHT22;19510;54.486;9.046;2022-07-19T18:51:02;28.20;99.90
16838;DHT22;19510;54.486;9.046;2022-07-19T18:53:32;28.10;99.90
16838;DHT22;19510;54.486;9.046;2022-07-19T18:56:00;28.00;99.90
16838;DHT22;19510;54.486;9.046;2022-07-19T18:58:26;27.90;99.90
16838;DHT22;19510;54.486;9.046;2022-07-19T19:00:52;27.80;99.90
16838;DHT22;19510;54.486;9.046;2022-07-19T19:03:18;27.80;99.90
16838;DHT22;19510;54.486;9.046;2022-07-19T19:05:46;27.70;99.90
16838;DHT22;19510;54.486;9.046;2022-07-19T19:08:17;27.60;99.90
16838;DHT22;19510;54.486;9.046;2022-07-19T19:10:46;27.50;99.90
16838;DHT22;19510;54.486;9.046;2022-07-19T19:13:11;27.40;99.90
16838;DHT22;19510;54.486;9.046;2022-07-19T19:15:39;27.40;99.90
16838;DHT22;19510;54.486;9.046;2022-07-19T19:18:08;27.30;99.90
16838;DHT22;19510;54.486;9.046;2022-07-19T19:20:34;27.20;99.90
16838;DHT22;19510;54.486;9.046;2022-07-19T19:23:10;27.10;99.90
16838;DHT22;19510;54.486;9.046;2022-07-19T19:26:14;26.90;99.90
16838;DHT22;19510;54.486;9.046;2022-07-19T19:28:52;26.80;99.90
16838;DHT22;19510;54.486;9.046;2022-07-19T19:31:21;26.80;99.90
16838;DHT22;19510;54.486;9.046;2022-07-19T19:34:00;26.70;99.90
16838;DHT22;19510;54.486;9.046;2022-07-19T19:36:32;26.60;99.90
16838;DHT22;19510;54.486;9.046;2022-07-19T19:39:00;26.50;99.90
16838;DHT22;19510;54.486;9.046;2022-07-19T19:41:30;26.40;99.90
16838;DHT22;19510;54.486;9.046;2022-07-19T19:43:58;26.40;99.90
16838;DHT22;19510;54.486;9.046;2022-07-19T19:46:30;26.30;99.90
16838;DHT22;19510;54.486;9.046;2022-07-19T19:49:01;26.10;99.90
16838;DHT22;19510;54.486;9.046;2022-07-19T19:51:36;26.10;99.90
16838;DHT22;19510;54.486;9.046;2022-07-19T19:54:03;25.90;99.90
16838;DHT22;19510;54.486;9.046;2022-07-19T19:56:34;25.90;99.90
16838;DHT22;19510;54.486;9.046;2022-07-19T19:59:10;25.90;99.90
16838;DHT22;19510;54.486;9.046;2022-07-19T20:01:38;25.90;99.90
16838;DHT22;19510;54.486;9.046;2022-07-19T20:04:04;25.80;99.90
16838;DHT22;19510;54.486;9.046;2022-07-19T20:06:36;25.70;99.90
16838;DHT22;19510;54.486;9.046;2022-07-19T20:09:02;25.70;99.90
16838;DHT22;19510;54.486;9.046;2022-07-19T20:11:32;25.60;99.90
16838;DHT22;19510;54.486;9.046;2022-07-19T20:13:58;25.60;99.90
16838;DHT22;19510;54.486;9.046;2022-07-19T20:16:26;25.50;99.90
16838;DHT22;19510;54.486;9.046;2022-07-19T20:18:57;25.40;99.90
16838;DHT22;19510;54.486;9.046;2022-07-19T20:21:25;25.40;99.90
16838;DHT22;19510;54.486;9.046;2022-07-19T20:23:51;25.40;99.90
16838;DHT22;19510;54.486;9.046;2022-07-19T20:26:17;25.30;99.90
16838;DHT22;19510;54.486;9.046;2022-07-19T20:28:43;25.30;99.90
16838;DHT22;19510;54.486;9.046;2022-07-19T20:31:09;25.30;99.90
16838;DHT22;19510;54.486;9.046;2022-07-19T20:33:36;25.30;99.90
16838;DHT22;19510;54.486;9.046;2022-07-19T20:36:02;25.30;99.90
16838;DHT22;19510;54.486;9.046;2022-07-19T20:38:28;25.20;99.90
16838;DHT22;19510;54.486;9.046;2022-07-19T20:40:54;25.20;99.90
16838;DHT22;19510;54.486;9.046;2022-07-19T20:43:22;25.10;99.90
16838;DHT22;19510;54.486;9.046;2022-07-19T20:45:49;25.10;99.90
16838;DHT22;19510;54.486;9.046;2022-07-19T20:48:35;25.10;99.90
16838;DHT22;19510;54.486;9.046;2022-07-19T20:51:05;25.00;99.90
16838;DHT22;19510;54.486;9.046;2022-07-19T20:53:32;25.00;99.90
16838;DHT22;19510;54.486;9.046;2022-07-19T20:56:04;24.90;99.90
